LGKFLGPZ

Guest
Details From LGKF - Kefallinia
To LGPZ - AKTIO
Flight Number -
Tags generated
Created
Modified
Stats Distance 51 nm / 94 km
Max Altitude 100 ft / 30 m
Waypoints 3
Social Downloads 1
Likes 0
Share VATSIM

Download

Looking for another format? Having issues loading an existing format? Contact us
Advertisement - Login to hide

Notes

Basic altitude profile: - Ascent Rate: 2500ft/min - Ascent Speed: 250kts - Cruise Altitude: 35000ft - Cruise Speed: 420kts - Descent Rate: 1500ft/min - Descent Speed: 250kts Options: - Use NATs: yes - Use PACOTS: yes - Use low airways: yes - Use high airways: yes

Route

LGKF KFN LGPZ

ID Type Via Altitude Latitude Longitude Leg Dist Tot Dist Heading (true) Name
O LGKF APT - 0 ft / 0 m 38.12007˚ 20.50048˚ - 0 nm - Kefallinia
KFN VOR - 100 ft / 30 m 38.11306˚ 20.50472˚ 0 nm 0 nm 155° / 155° KEFALLINIA VOR-DME
O LGPZ APT - 0 ft / 0 m 38.92547˚ 20.76531˚ 50 nm 50 nm 14° / 14° AKTIO

Altitude Profile

Advertisement - Login to hide

LGKF

Details ICAO LGKF (EFL)
Name Kefallinia
Region Greece
Timezone Europe/Athens (UTC+3.0)
Stats Elevation 59 ft / 18 m (AMSL)
Location 38.120069° 20.500480°
Runways 1
Magnetic Variation 4.096° E

METAR

LGKF 262050Z 01009KT CAVOK 25/13 Q1016

Decode

TAF

Not found

Departure Runways

ID Width Length Bearing (true) Bearing (mag) Surface Threshold Offset Overrun Length
14 148 ft / 45 m 7,979 ft / 2,432 m 146.39° 142.29° Asphalt 0 ft / 0 m 180 ft / 55 m
32 148 ft / 45 m 7,979 ft / 2,432 m 326.40° 322.30° Asphalt 912 ft / 278 m 100 ft / 30 m

LGPZ

Details ICAO LGPZ (PVK)
Name AKTIO
Region Greece
Timezone Europe/Athens (UTC+3.0)
Stats Elevation 11 ft / 3 m (AMSL)
Location 38.925465° 20.765311°
Runways 1
Magnetic Variation 4.204° E

METAR

LGPZ 262050Z 00000KT CAVOK 21/18 Q1016 RMK FEW180 BLU

Decode

TAF

TAF LGPZ 261700Z 2618/2718 28008KT 9999 FEW025 BECMG 2620/2622 06008KT BECMG 2707/2709 FEW020 SCT080 PROB30 TEMPO 2710/2716 5000 SHRA FEW018CB BKN070 BECMG 2710/2712 27015KT

Decode

Destination Runways

ID Width Length Bearing (true) Bearing (mag) Surface Threshold Offset Overrun Length
07L 148 ft / 45 m 9,404 ft / 2,866 m 67.79° 63.59° Asphalt 0 ft / 0 m 80 ft / 24 m
25R 148 ft / 45 m 9,404 ft / 2,866 m 247.81° 243.61° Asphalt 492 ft / 150 m 380 ft / 116 m